sensor_id;sensor_type;location;lat;lon;timestamp;temperature;humidity
41481;DHT22;27217;51.220;5.308;2023-07-16T00:01:56;18.00;99.90
41481;DHT22;27217;51.220;5.308;2023-07-16T00:04:22;18.00;99.90
41481;DHT22;27217;51.220;5.308;2023-07-16T00:06:48;17.80;99.90
41481;DHT22;27217;51.220;5.308;2023-07-16T00:09:14;17.90;99.90
41481;DHT22;27217;51.220;5.308;2023-07-16T00:11:40;17.90;99.90
41481;DHT22;27217;51.220;5.308;2023-07-16T00:14:06;17.90;99.90
41481;DHT22;27217;51.220;5.308;2023-07-16T00:16:32;18.00;99.90
41481;DHT22;27217;51.220;5.308;2023-07-16T00:18:58;18.10;99.90
41481;DHT22;27217;51.220;5.308;2023-07-16T00:21:24;17.90;99.90
41481;DHT22;27217;51.220;5.308;2023-07-16T00:23:50;17.80;99.90
41481;DHT22;27217;51.220;5.308;2023-07-16T00:26:16;17.70;99.90
41481;DHT22;27217;51.220;5.308;2023-07-16T00:28:42;17.60;99.90
41481;DHT22;27217;51.220;5.308;2023-07-16T00:31:10;17.80;99.90
41481;DHT22;27217;51.220;5.308;2023-07-16T00:33:36;17.80;99.90
41481;DHT22;27217;51.220;5.308;2023-07-16T00:36:01;17.60;99.90
41481;DHT22;27217;51.220;5.308;2023-07-16T00:38:27;17.60;99.90
41481;DHT22;27217;51.220;5.308;2023-07-16T00:40:53;17.40;99.90
41481;DHT22;27217;51.220;5.308;2023-07-16T00:43:19;17.50;99.90
41481;DHT22;27217;51.220;5.308;2023-07-16T00:45:45;17.50;99.90
41481;DHT22;27217;51.220;5.308;2023-07-16T00:48:12;17.20;99.90
41481;DHT22;27217;51.220;5.308;2023-07-16T00:50:39;17.10;99.90
41481;DHT22;27217;51.220;5.308;2023-07-16T00:53:09;17.30;99.90
41481;DHT22;27217;51.220;5.308;2023-07-16T00:55:36;17.30;99.90
41481;DHT22;27217;51.220;5.308;2023-07-16T00:58:04;17.30;99.90
41481;DHT22;27217;51.220;5.308;2023-07-16T01:00:42;17.10;99.90
41481;DHT22;27217;51.220;5.308;2023-07-16T01:03:10;17.10;99.90
41481;DHT22;27217;51.220;5.308;2023-07-16T01:08:09;17.00;99.90
41481;DHT22;27217;51.220;5.308;2023-07-16T01:10:38;17.00;99.90
41481;DHT22;27217;51.220;5.308;2023-07-16T01:13:04;16.90;99.90
41481;DHT22;27217;51.220;5.308;2023-07-16T01:15:30;16.80;99.90
41481;DHT22;27217;51.220;5.308;2023-07-16T01:17:56;16.50;99.90
41481;DHT22;27217;51.220;5.308;2023-07-16T01:20:22;16.60;99.90
41481;DHT22;27217;51.220;5.308;2023-07-16T01:23:28;16.50;99.90
41481;DHT22;27217;51.220;5.308;2023-07-16T01:31:37;16.80;99.90
41481;DHT22;27217;51.220;5.308;2023-07-16T01:34:05;16.70;99.90
41481;DHT22;27217;51.220;5.308;2023-07-16T01:36:32;16.60;99.90
41481;DHT22;27217;51.220;5.308;2023-07-16T01:38:59;16.60;99.90
41481;DHT22;27217;51.220;5.308;2023-07-16T01:41:25;16.60;99.90
41481;DHT22;27217;51.220;5.308;2023-07-16T01:43:51;16.70;99.90
41481;DHT22;27217;51.220;5.308;2023-07-16T01:46:18;16.70;99.90
41481;DHT22;27217;51.220;5.308;2023-07-16T01:48:44;16.70;99.90
41481;DHT22;27217;51.220;5.308;2023-07-16T01:51:10;16.70;99.90
41481;DHT22;27217;51.220;5.308;2023-07-16T01:53:40;16.80;99.90
41481;DHT22;27217;51.220;5.308;2023-07-16T01:56:05;16.70;99.90
41481;DHT22;27217;51.220;5.308;2023-07-16T01:58:31;16.50;99.90
41481;DHT22;27217;51.220;5.308;2023-07-16T02:00:57;16.40;99.90
41481;DHT22;27217;51.220;5.308;2023-07-16T02:03:23;16.40;99.90
41481;DHT22;27217;51.220;5.308;2023-07-16T02:05:49;16.30;99.90
41481;DHT22;27217;51.220;5.308;2023-07-16T02:08:17;16.30;99.90
41481;DHT22;27217;51.220;5.308;2023-07-16T02:10:44;16.20;99.90
41481;DHT22;27217;51.220;5.308;2023-07-16T02:13:10;16.20;99.90
41481;DHT22;27217;51.220;5.308;2023-07-16T02:15:38;16.20;99.90
41481;DHT22;27217;51.220;5.308;2023-07-16T02:18:04;16.00;99.90
41481;DHT22;27217;51.220;5.308;2023-07-16T02:20:31;16.10;99.90
41481;DHT22;27217;51.220;5.308;2023-07-16T02:22:57;16.00;99.90
41481;DHT22;27217;51.220;5.308;2023-07-16T02:25:22;15.80;99.90
41481;DHT22;27217;51.220;5.308;2023-07-16T02:27:48;15.80;99.90
41481;DHT22;27217;51.220;5.308;2023-07-16T02:30:15;16.00;99.90
41481;DHT22;27217;51.220;5.308;2023-07-16T02:32:41;16.00;99.90
41481;DHT22;27217;51.220;5.308;2023-07-16T02:35:07;16.00;99.90
41481;DHT22;27217;51.220;5.308;2023-07-16T02:37:33;15.90;99.90
41481;DHT22;27217;51.220;5.308;2023-07-16T02:39:59;15.80;99.90
41481;DHT22;27217;51.220;5.308;2023-07-16T02:42:25;15.70;99.90
41481;DHT22;27217;51.220;5.308;2023-07-16T02:44:51;15.70;99.90
41481;DHT22;27217;51.220;5.308;2023-07-16T02:47:17;15.70;99.90
41481;DHT22;27217;51.220;5.308;2023-07-16T02:49:43;15.80;99.90
41481;DHT22;27217;51.220;5.308;2023-07-16T02:52:09;15.70;99.90
41481;DHT22;27217;51.220;5.308;2023-07-16T02:54:38;15.40;99.90
41481;DHT22;27217;51.220;5.308;2023-07-16T02:57:05;15.30;99.90
41481;DHT22;27217;51.220;5.308;2023-07-16T02:59:31;15.50;99.90
41481;DHT22;27217;51.220;5.308;2023-07-16T03:01:57;15.30;99.90
41481;DHT22;27217;51.220;5.308;2023-07-16T03:04:23;15.10;99.90
41481;DHT22;27217;51.220;5.308;2023-07-16T03:06:48;15.20;99.90
41481;DHT22;27217;51.220;5.308;2023-07-16T03:09:14;15.10;99.90
41481;DHT22;27217;51.220;5.308;2023-07-16T03:11:40;15.10;99.90
41481;DHT22;27217;51.220;5.308;2023-07-16T03:14:06;15.20;99.90
41481;DHT22;27217;51.220;5.308;2023-07-16T03:16:31;15.20;99.90
41481;DHT22;27217;51.220;5.308;2023-07-16T03:18:57;15.10;99.90
41481;DHT22;27217;51.220;5.308;2023-07-16T03:21:23;14.90;99.90
41481;DHT22;27217;51.220;5.308;2023-07-16T03:23:49;15.00;99.90
41481;DHT22;27217;51.220;5.308;2023-07-16T03:26:15;15.00;99.90
41481;DHT22;27217;51.220;5.308;2023-07-16T03:28:40;15.10;99.90
41481;DHT22;27217;51.220;5.308;2023-07-16T03:31:06;15.30;99.90
41481;DHT22;27217;51.220;5.308;2023-07-16T03:33:32;15.10;99.90
41481;DHT22;27217;51.220;5.308;2023-07-16T03:35:58;15.10;99.90
41481;DHT22;27217;51.220;5.308;2023-07-16T03:38:23;15.00;99.90
41481;DHT22;27217;51.220;5.308;2023-07-16T03:40:50;15.10;99.90
41481;DHT22;27217;51.220;5.308;2023-07-16T03:43:16;15.20;99.90
41481;DHT22;27217;51.220;5.308;2023-07-16T03:45:43;15.10;99.90
41481;DHT22;27217;51.220;5.308;2023-07-16T03:48:08;15.00;99.90
41481;DHT22;27217;51.220;5.308;2023-07-16T03:50:35;15.10;99.90
41481;DHT22;27217;51.220;5.308;2023-07-16T03:53:01;15.10;99.90
41481;DHT22;27217;51.220;5.308;2023-07-16T03:55:29;15.10;99.90
41481;DHT22;27217;51.220;5.308;2023-07-16T03:57:54;14.90;99.90
41481;DHT22;27217;51.220;5.308;2023-07-16T04:00:20;14.80;99.90
41481;DHT22;27217;51.220;5.308;2023-07-16T04:02:46;14.70;99.90
41481;DHT22;27217;51.220;5.308;2023-07-16T04:05:12;14.70;99.90
41481;DHT22;27217;51.220;5.308;2023-07-16T04:07:38;14.80;99.90
41481;DHT22;27217;51.220;5.308;2023-07-16T04:10:07;14.80;99.90
41481;DHT22;27217;51.220;5.308;2023-07-16T04:12:32;14.80;99.90
41481;DHT22;27217;51.220;5.308;2023-07-16T04:14:59;14.90;99.90
41481;DHT22;27217;51.220;5.308;2023-07-16T04:17:25;15.00;99.90
41481;DHT22;27217;51.220;5.308;2023-07-16T04:19:52;15.00;99.90
41481;DHT22;27217;51.220;5.308;2023-07-16T04:22:18;14.90;99.90
41481;DHT22;27217;51.220;5.308;2023-07-16T04:24:44;14.90;99.90
41481;DHT22;27217;51.220;5.308;2023-07-16T04:27:09;15.10;99.90
41481;DHT22;27217;51.220;5.308;2023-07-16T04:29:36;14.90;99.90
41481;DHT22;27217;51.220;5.308;2023-07-16T04:32:04;15.00;99.90
41481;DHT22;27217;51.220;5.308;2023-07-16T04:34:30;15.00;99.90
41481;DHT22;27217;51.220;5.308;2023-07-16T04:36:57;15.00;99.90
41481;DHT22;27217;51.220;5.308;2023-07-16T04:39:22;15.10;99.90
41481;DHT22;27217;51.220;5.308;2023-07-16T04:41:48;15.20;99.90
41481;DHT22;27217;51.220;5.308;2023-07-16T04:44:14;15.20;99.90
41481;DHT22;27217;51.220;5.308;2023-07-16T04:46:40;15.10;99.90
41481;DHT22;27217;51.220;5.308;2023-07-16T04:49:05;15.30;99.90
41481;DHT22;27217;51.220;5.308;2023-07-16T04:51:32;15.30;99.90
41481;DHT22;27217;51.220;5.308;2023-07-16T04:53:57;15.20;99.90
41481;DHT22;27217;51.220;5.308;2023-07-16T04:56:24;15.00;99.90
41481;DHT22;27217;51.220;5.308;2023-07-16T04:58:49;15.00;99.90
41481;DHT22;27217;51.220;5.308;2023-07-16T05:01:15;15.10;99.90
41481;DHT22;27217;51.220;5.308;2023-07-16T05:03:41;15.00;99.90
41481;DHT22;27217;51.220;5.308;2023-07-16T05:06:07;15.20;99.90
41481;DHT22;27217;51.220;5.308;2023-07-16T05:08:33;15.30;99.90
41481;DHT22;27217;51.220;5.308;2023-07-16T05:10:59;15.50;99.90
41481;DHT22;27217;51.220;5.308;2023-07-16T05:13:25;15.50;99.90
41481;DHT22;27217;51.220;5.308;2023-07-16T05:15:50;15.70;99.90
41481;DHT22;27217;51.220;5.308;2023-07-16T05:18:16;15.70;99.90
41481;DHT22;27217;51.220;5.308;2023-07-16T05:20:42;15.80;99.90
41481;DHT22;27217;51.220;5.308;2023-07-16T05:23:09;15.80;99.90
41481;DHT22;27217;51.220;5.308;2023-07-16T05:25:35;15.80;99.90
41481;DHT22;27217;51.220;5.308;2023-07-16T05:28:01;15.70;99.90
41481;DHT22;27217;51.220;5.308;2023-07-16T05:30:27;15.80;99.90
41481;DHT22;27217;51.220;5.308;2023-07-16T05:32:53;15.90;99.90
41481;DHT22;27217;51.220;5.308;2023-07-16T05:35:19;16.00;99.90
41481;DHT22;27217;51.220;5.308;2023-07-16T05:37:45;16.00;99.90
41481;DHT22;27217;51.220;5.308;2023-07-16T05:40:10;15.90;99.90
41481;DHT22;27217;51.220;5.308;2023-07-16T05:42:36;16.00;99.90
41481;DHT22;27217;51.220;5.308;2023-07-16T05:45:04;16.00;99.90
41481;DHT22;27217;51.220;5.308;2023-07-16T05:47:29;16.00;99.90
41481;DHT22;27217;51.220;5.308;2023-07-16T05:49:55;16.10;99.90
41481;DHT22;27217;51.220;5.308;2023-07-16T05:52:21;16.20;99.90
41481;DHT22;27217;51.220;5.308;2023-07-16T05:54:47;16.30;99.90
41481;DHT22;27217;51.220;5.308;2023-07-16T05:57:12;16.30;99.90
41481;DHT22;27217;51.220;5.308;2023-07-16T05:59:39;16.20;99.90
41481;DHT22;27217;51.220;5.308;2023-07-16T06:02:06;16.30;99.90
41481;DHT22;27217;51.220;5.308;2023-07-16T06:04:32;16.30;99.90
41481;DHT22;27217;51.220;5.308;2023-07-16T06:06:57;16.40;99.90
41481;DHT22;27217;51.220;5.308;2023-07-16T06:09:23;16.50;99.90
41481;DHT22;27217;51.220;5.308;2023-07-16T06:11:50;16.60;99.90
41481;DHT22;27217;51.220;5.308;2023-07-16T06:14:16;16.50;99.90
41481;DHT22;27217;51.220;5.308;2023-07-16T06:16:42;16.60;99.90
41481;DHT22;27217;51.220;5.308;2023-07-16T06:19:07;16.60;99.90
41481;DHT22;27217;51.220;5.308;2023-07-16T06:21:33;16.70;99.90
41481;DHT22;27217;51.220;5.308;2023-07-16T06:23:59;16.80;99.90
41481;DHT22;27217;51.220;5.308;2023-07-16T06:26:25;16.80;99.90
41481;DHT22;27217;51.220;5.308;2023-07-16T06:28:54;17.00;99.90
41481;DHT22;27217;51.220;5.308;2023-07-16T06:31:20;17.00;99.90
41481;DHT22;27217;51.220;5.308;2023-07-16T06:33:45;16.90;99.90
41481;DHT22;27217;51.220;5.308;2023-07-16T06:36:13;16.90;99.90
41481;DHT22;27217;51.220;5.308;2023-07-16T06:38:38;17.10;99.90
41481;DHT22;27217;51.220;5.308;2023-07-16T06:41:04;16.90;99.90
41481;DHT22;27217;51.220;5.308;2023-07-16T06:43:30;17.00;99.90
41481;DHT22;27217;51.220;5.308;2023-07-16T06:45:56;17.10;99.90
41481;DHT22;27217;51.220;5.308;2023-07-16T06:48:22;17.20;99.90
41481;DHT22;27217;51.220;5.308;2023-07-16T06:50:49;17.30;99.90
41481;DHT22;27217;51.220;5.308;2023-07-16T06:53:15;17.40;99.90
41481;DHT22;27217;51.220;5.308;2023-07-16T06:55:44;17.30;99.90
41481;DHT22;27217;51.220;5.308;2023-07-16T06:58:14;17.20;99.90
41481;DHT22;27217;51.220;5.308;2023-07-16T07:00:40;17.30;99.90
41481;DHT22;27217;51.220;5.308;2023-07-16T07:03:06;17.30;99.90
41481;DHT22;27217;51.220;5.308;2023-07-16T07:05:41;17.60;99.90
41481;DHT22;27217;51.220;5.308;2023-07-16T07:08:07;17.50;99.90
41481;DHT22;27217;51.220;5.308;2023-07-16T07:10:33;17.60;99.90
41481;DHT22;27217;51.220;5.308;2023-07-16T07:13:03;17.60;99.90
41481;DHT22;27217;51.220;5.308;2023-07-16T07:15:28;17.60;99.90
41481;DHT22;27217;51.220;5.308;2023-07-16T07:17:54;17.80;99.90
41481;DHT22;27217;51.220;5.308;2023-07-16T07:20:20;17.80;99.90
41481;DHT22;27217;51.220;5.308;2023-07-16T07:22:46;17.70;99.90
41481;DHT22;27217;51.220;5.308;2023-07-16T07:25:12;17.70;99.90
41481;DHT22;27217;51.220;5.308;2023-07-16T07:27:37;17.80;99.90
41481;DHT22;27217;51.220;5.308;2023-07-16T07:30:08;17.90;99.90
41481;DHT22;27217;51.220;5.308;2023-07-16T07:32:37;17.90;99.90
41481;DHT22;27217;51.220;5.308;2023-07-16T07:35:04;17.90;99.90
41481;DHT22;27217;51.220;5.308;2023-07-16T07:37:30;17.90;99.90
41481;DHT22;27217;51.220;5.308;2023-07-16T07:39:59;17.90;99.90
41481;DHT22;27217;51.220;5.308;2023-07-16T07:42:24;17.80;99.90
41481;DHT22;27217;51.220;5.308;2023-07-16T07:44:52;18.00;99.90
41481;DHT22;27217;51.220;5.308;2023-07-16T07:47:18;18.20;99.90
41481;DHT22;27217;51.220;5.308;2023-07-16T07:49:44;18.20;99.90
41481;DHT22;27217;51.220;5.308;2023-07-16T07:52:09;18.10;99.90
41481;DHT22;27217;51.220;5.308;2023-07-16T07:54:35;18.40;99.90
41481;DHT22;27217;51.220;5.308;2023-07-16T07:57:02;18.50;99.90
41481;DHT22;27217;51.220;5.308;2023-07-16T07:59:29;18.60;99.90
41481;DHT22;27217;51.220;5.308;2023-07-16T08:01:55;18.50;99.90
41481;DHT22;27217;51.220;5.308;2023-07-16T08:04:21;18.50;99.90
41481;DHT22;27217;51.220;5.308;2023-07-16T08:06:47;18.60;99.90
41481;DHT22;27217;51.220;5.308;2023-07-16T08:09:13;18.90;99.90
41481;DHT22;27217;51.220;5.308;2023-07-16T08:11:38;18.90;99.90
41481;DHT22;27217;51.220;5.308;2023-07-16T08:14:05;18.80;99.90
41481;DHT22;27217;51.220;5.308;2023-07-16T08:16:30;18.70;99.90
41481;DHT22;27217;51.220;5.308;2023-07-16T08:18:56;18.90;99.90
41481;DHT22;27217;51.220;5.308;2023-07-16T08:21:22;19.00;99.90
41481;DHT22;27217;51.220;5.308;2023-07-16T08:23:49;19.30;99.90
41481;DHT22;27217;51.220;5.308;2023-07-16T08:26:15;19.20;99.90
41481;DHT22;27217;51.220;5.308;2023-07-16T08:28:41;19.20;99.90
41481;DHT22;27217;51.220;5.308;2023-07-16T08:31:07;19.50;99.90
41481;DHT22;27217;51.220;5.308;2023-07-16T08:33:33;19.40;99.90
41481;DHT22;27217;51.220;5.308;2023-07-16T08:35:59;19.60;99.90
41481;DHT22;27217;51.220;5.308;2023-07-16T08:38:24;19.60;99.90
41481;DHT22;27217;51.220;5.308;2023-07-16T08:40:51;19.50;99.90
41481;DHT22;27217;51.220;5.308;2023-07-16T08:43:16;19.30;99.90
41481;DHT22;27217;51.220;5.308;2023-07-16T08:45:44;19.30;99.90
41481;DHT22;27217;51.220;5.308;2023-07-16T08:48:11;19.50;99.90
41481;DHT22;27217;51.220;5.308;2023-07-16T08:50:38;19.50;99.90
41481;DHT22;27217;51.220;5.308;2023-07-16T08:53:07;19.70;99.90
41481;DHT22;27217;51.220;5.308;2023-07-16T08:55:34;19.60;99.90
41481;DHT22;27217;51.220;5.308;2023-07-16T08:58:04;19.80;99.90
41481;DHT22;27217;51.220;5.308;2023-07-16T09:00:30;19.90;99.90
41481;DHT22;27217;51.220;5.308;2023-07-16T09:02:56;20.00;99.90
41481;DHT22;27217;51.220;5.308;2023-07-16T09:05:22;19.90;99.90
41481;DHT22;27217;51.220;5.308;2023-07-16T09:07:49;19.60;99.90
41481;DHT22;27217;51.220;5.308;2023-07-16T09:10:15;19.80;99.90
41481;DHT22;27217;51.220;5.308;2023-07-16T09:12:45;19.80;99.90
41481;DHT22;27217;51.220;5.308;2023-07-16T09:15:13;19.90;99.90
41481;DHT22;27217;51.220;5.308;2023-07-16T09:17:39;20.10;99.90
41481;DHT22;27217;51.220;5.308;2023-07-16T09:20:05;20.30;99.90
41481;DHT22;27217;51.220;5.308;2023-07-16T09:22:33;20.70;99.90
41481;DHT22;27217;51.220;5.308;2023-07-16T09:25:00;20.90;99.90
41481;DHT22;27217;51.220;5.308;2023-07-16T09:27:31;20.70;99.90
41481;DHT22;27217;51.220;5.308;2023-07-16T09:29:57;20.50;99.90
41481;DHT22;27217;51.220;5.308;2023-07-16T09:32:38;20.50;99.90
41481;DHT22;27217;51.220;5.308;2023-07-16T09:35:14;20.70;99.90
41481;DHT22;27217;51.220;5.308;2023-07-16T09:37:42;20.50;99.90
41481;DHT22;27217;51.220;5.308;2023-07-16T09:40:10;20.50;99.90
41481;DHT22;27217;51.220;5.308;2023-07-16T09:42:41;20.80;99.90
41481;DHT22;27217;51.220;5.308;2023-07-16T09:45:08;20.70;99.90
41481;DHT22;27217;51.220;5.308;2023-07-16T09:47:37;20.90;99.90
41481;DHT22;27217;51.220;5.308;2023-07-16T09:50:03;21.30;99.90
41481;DHT22;27217;51.220;5.308;2023-07-16T09:52:32;21.50;99.90
41481;DHT22;27217;51.220;5.308;2023-07-16T09:55:02;21.40;99.90
41481;DHT22;27217;51.220;5.308;2023-07-16T09:57:30;21.40;99.90
41481;DHT22;27217;51.220;5.308;2023-07-16T10:00:00;21.90;99.90
41481;DHT22;27217;51.220;5.308;2023-07-16T10:02:32;22.10;99.90
41481;DHT22;27217;51.220;5.308;2023-07-16T10:04:58;22.10;99.90
41481;DHT22;27217;51.220;5.308;2023-07-16T10:07:24;22.00;99.90
41481;DHT22;27217;51.220;5.308;2023-07-16T10:10:01;21.90;99.60
41481;DHT22;27217;51.220;5.308;2023-07-16T10:12:34;21.40;99.90
41481;DHT22;27217;51.220;5.308;2023-07-16T10:15:00;21.60;99.90
41481;DHT22;27217;51.220;5.308;2023-07-16T10:17:31;21.70;99.90
41481;DHT22;27217;51.220;5.308;2023-07-16T10:22:45;22.00;99.80
41481;DHT22;27217;51.220;5.308;2023-07-16T10:27:45;22.20;99.80
41481;DHT22;27217;51.220;5.308;2023-07-16T10:30:12;22.00;99.30
41481;DHT22;27217;51.220;5.308;2023-07-16T10:32:38;21.80;99.90
41481;DHT22;27217;51.220;5.308;2023-07-16T10:35:09;22.00;99.90
41481;DHT22;27217;51.220;5.308;2023-07-16T10:37:36;21.60;99.90
41481;DHT22;27217;51.220;5.308;2023-07-16T10:40:03;21.60;99.90
41481;DHT22;27217;51.220;5.308;2023-07-16T10:42:30;21.60;99.90
41481;DHT22;27217;51.220;5.308;2023-07-16T10:45:03;21.80;99.90
41481;DHT22;27217;51.220;5.308;2023-07-16T10:47:34;22.10;98.90
41481;DHT22;27217;51.220;5.308;2023-07-16T10:50:03;21.90;98.80
41481;DHT22;27217;51.220;5.308;2023-07-16T10:52:29;21.60;99.90
41481;DHT22;27217;51.220;5.308;2023-07-16T10:54:55;21.70;99.30
41481;DHT22;27217;51.220;5.308;2023-07-16T10:57:24;21.60;99.40
41481;DHT22;27217;51.220;5.308;2023-07-16T10:59:51;21.60;99.90
41481;DHT22;27217;51.220;5.308;2023-07-16T11:02:18;21.50;99.90
41481;DHT22;27217;51.220;5.308;2023-07-16T11:04:47;21.70;99.90
41481;DHT22;27217;51.220;5.308;2023-07-16T11:07:14;21.20;99.90
41481;DHT22;27217;51.220;5.308;2023-07-16T11:09:47;21.10;99.90
41481;DHT22;27217;51.220;5.308;2023-07-16T11:12:32;21.10;99.90
41481;DHT22;27217;51.220;5.308;2023-07-16T11:14:58;20.90;99.90
41481;DHT22;27217;51.220;5.308;2023-07-16T11:17:24;21.20;99.90
41481;DHT22;27217;51.220;5.308;2023-07-16T11:19:52;21.50;99.90
41481;DHT22;27217;51.220;5.308;2023-07-16T11:22:18;21.60;99.90
41481;DHT22;27217;51.220;5.308;2023-07-16T11:24:50;21.60;99.90
41481;DHT22;27217;51.220;5.308;2023-07-16T11:27:20;21.50;99.90
41481;DHT22;27217;51.220;5.308;2023-07-16T11:29:51;21.30;99.90
41481;DHT22;27217;51.220;5.308;2023-07-16T11:35:00;20.70;99.90
41481;DHT22;27217;51.220;5.308;2023-07-16T11:37:27;20.70;99.90
41481;DHT22;27217;51.220;5.308;2023-07-16T11:39:58;20.40;99.90
41481;DHT22;27217;51.220;5.308;2023-07-16T11:42:31;20.80;99.90
41481;DHT22;27217;51.220;5.308;2023-07-16T11:44:58;20.90;99.90
41481;DHT22;27217;51.220;5.308;2023-07-16T11:47:24;21.30;99.90
41481;DHT22;27217;51.220;5.308;2023-07-16T11:49:50;21.70;99.90
41481;DHT22;27217;51.220;5.308;2023-07-16T11:52:24;21.80;99.90
41481;DHT22;27217;51.220;5.308;2023-07-16T11:54:52;22.10;99.90
41481;DHT22;27217;51.220;5.308;2023-07-16T11:57:18;22.30;99.20
41481;DHT22;27217;51.220;5.308;2023-07-16T11:59:45;22.00;99.80
41481;DHT22;27217;51.220;5.308;2023-07-16T12:02:11;22.30;99.20
41481;DHT22;27217;51.220;5.308;2023-07-16T12:04:37;22.70;98.60
41481;DHT22;27217;51.220;5.308;2023-07-16T12:07:03;23.00;98.10
41481;DHT22;27217;51.220;5.308;2023-07-16T12:09:29;22.80;98.40
41481;DHT22;27217;51.220;5.308;2023-07-16T12:11:55;23.10;97.50
41481;DHT22;27217;51.220;5.308;2023-07-16T12:14:22;24.20;94.50
41481;DHT22;27217;51.220;5.308;2023-07-16T12:16:48;23.50;95.50
41481;DHT22;27217;51.220;5.308;2023-07-16T12:19:14;23.40;95.60
41481;DHT22;27217;51.220;5.308;2023-07-16T12:21:39;23.00;96.90
41481;DHT22;27217;51.220;5.308;2023-07-16T12:24:05;23.10;96.80
41481;DHT22;27217;51.220;5.308;2023-07-16T12:26:31;22.80;96.40
41481;DHT22;27217;51.220;5.308;2023-07-16T12:29:00;22.30;97.20
41481;DHT22;27217;51.220;5.308;2023-07-16T12:31:32;22.10;97.50
41481;DHT22;27217;51.220;5.308;2023-07-16T12:34:00;22.20;97.80
41481;DHT22;27217;51.220;5.308;2023-07-16T12:36:30;22.30;97.90
41481;DHT22;27217;51.220;5.308;2023-07-16T12:38:56;23.20;96.40
41481;DHT22;27217;51.220;5.308;2023-07-16T12:41:26;24.00;94.20
41481;DHT22;27217;51.220;5.308;2023-07-16T12:43:52;24.90;92.20
41481;DHT22;27217;51.220;5.308;2023-07-16T12:46:18;24.50;92.10
41481;DHT22;27217;51.220;5.308;2023-07-16T12:48:45;24.20;92.10
41481;DHT22;27217;51.220;5.308;2023-07-16T12:51:11;23.60;93.30
41481;DHT22;27217;51.220;5.308;2023-07-16T12:53:37;23.80;93.30
41481;DHT22;27217;51.220;5.308;2023-07-16T12:56:04;24.80;91.50
41481;DHT22;27217;51.220;5.308;2023-07-16T12:58:30;26.30;86.90
41481;DHT22;27217;51.220;5.308;2023-07-16T13:00:55;26.80;84.30
41481;DHT22;27217;51.220;5.308;2023-07-16T13:03:21;27.00;80.50
41481;DHT22;27217;51.220;5.308;2023-07-16T13:05:47;25.80;83.90
41481;DHT22;27217;51.220;5.308;2023-07-16T13:08:13;26.40;81.80
41481;DHT22;27217;51.220;5.308;2023-07-16T13:10:39;27.40;78.40
41481;DHT22;27217;51.220;5.308;2023-07-16T13:13:06;27.80;76.20
41481;DHT22;27217;51.220;5.308;2023-07-16T13:15:33;27.30;77.00
41481;DHT22;27217;51.220;5.308;2023-07-16T13:17:59;27.00;76.70
41481;DHT22;27217;51.220;5.308;2023-07-16T13:20:25;27.00;78.60
41481;DHT22;27217;51.220;5.308;2023-07-16T13:22:51;28.00;76.20
41481;DHT22;27217;51.220;5.308;2023-07-16T13:25:17;28.40;73.10
41481;DHT22;27217;51.220;5.308;2023-07-16T13:27:43;27.80;74.30
41481;DHT22;27217;51.220;5.308;2023-07-16T13:30:09;27.80;72.80
41481;DHT22;27217;51.220;5.308;2023-07-16T13:32:35;25.90;76.50
41481;DHT22;27217;51.220;5.308;2023-07-16T13:35:00;25.40;79.70
41481;DHT22;27217;51.220;5.308;2023-07-16T13:37:26;25.60;80.60
41481;DHT22;27217;51.220;5.308;2023-07-16T13:39:52;25.80;80.40
41481;DHT22;27217;51.220;5.308;2023-07-16T13:42:18;25.50;80.10
41481;DHT22;27217;51.220;5.308;2023-07-16T13:44:44;25.20;81.10
41481;DHT22;27217;51.220;5.308;2023-07-16T13:47:10;25.60;78.30
41481;DHT22;27217;51.220;5.308;2023-07-16T13:49:37;25.30;79.50
41481;DHT22;27217;51.220;5.308;2023-07-16T13:52:05;26.50;77.30
41481;DHT22;27217;51.220;5.308;2023-07-16T13:54:48;27.20;74.30
41481;DHT22;27217;51.220;5.308;2023-07-16T13:57:14;28.20;71.80
41481;DHT22;27217;51.220;5.308;2023-07-16T13:59:40;27.90;71.40
41481;DHT22;27217;51.220;5.308;2023-07-16T14:02:07;27.90;72.00
41481;DHT22;27217;51.220;5.308;2023-07-16T14:04:33;28.20;70.70
41481;DHT22;27217;51.220;5.308;2023-07-16T14:06:59;26.90;72.10
41481;DHT22;27217;51.220;5.308;2023-07-16T14:09:25;26.20;76.00
41481;DHT22;27217;51.220;5.308;2023-07-16T14:11:51;26.30;75.40
41481;DHT22;27217;51.220;5.308;2023-07-16T14:14:18;26.50;76.50
41481;DHT22;27217;51.220;5.308;2023-07-16T14:16:44;27.40;72.50
41481;DHT22;27217;51.220;5.308;2023-07-16T14:19:11;27.30;73.30
41481;DHT22;27217;51.220;5.308;2023-07-16T14:21:56;28.10;71.90
41481;DHT22;27217;51.220;5.308;2023-07-16T14:24:22;27.30;71.90
41481;DHT22;27217;51.220;5.308;2023-07-16T14:26:48;26.90;72.90
41481;DHT22;27217;51.220;5.308;2023-07-16T14:29:14;26.80;73.40
41481;DHT22;27217;51.220;5.308;2023-07-16T14:31:40;26.30;74.20
41481;DHT22;27217;51.220;5.308;2023-07-16T14:34:06;26.00;75.70
41481;DHT22;27217;51.220;5.308;2023-07-16T14:36:32;27.70;72.70
41481;DHT22;27217;51.220;5.308;2023-07-16T14:38:58;28.80;69.10
41481;DHT22;27217;51.220;5.308;2023-07-16T14:41:24;27.40;70.60
41481;DHT22;27217;51.220;5.308;2023-07-16T14:43:49;26.80;73.00
41481;DHT22;27217;51.220;5.308;2023-07-16T14:46:16;26.00;75.50
41481;DHT22;27217;51.220;5.308;2023-07-16T14:48:43;26.00;75.20
41481;DHT22;27217;51.220;5.308;2023-07-16T14:51:10;25.90;74.40
41481;DHT22;27217;51.220;5.308;2023-07-16T14:53:37;25.00;77.60
41481;DHT22;27217;51.220;5.308;2023-07-16T14:56:03;24.80;79.90
41481;DHT22;27217;51.220;5.308;2023-07-16T14:58:31;24.80;80.60
41481;DHT22;27217;51.220;5.308;2023-07-16T15:01:01;24.40;83.30
41481;DHT22;27217;51.220;5.308;2023-07-16T15:03:34;24.10;86.10
41481;DHT22;27217;51.220;5.308;2023-07-16T15:06:00;23.60;87.80
41481;DHT22;27217;51.220;5.308;2023-07-16T15:08:26;23.30;89.00
41481;DHT22;27217;51.220;5.308;2023-07-16T15:10:53;23.30;89.50
41481;DHT22;27217;51.220;5.308;2023-07-16T15:13:23;23.30;90.10
41481;DHT22;27217;51.220;5.308;2023-07-16T15:15:51;23.30;90.40
41481;DHT22;27217;51.220;5.308;2023-07-16T15:18:18;23.40;90.40
41481;DHT22;27217;51.220;5.308;2023-07-16T15:20:45;23.10;91.70
41481;DHT22;27217;51.220;5.308;2023-07-16T15:23:11;23.40;90.80
41481;DHT22;27217;51.220;5.308;2023-07-16T15:25:40;23.30;91.00
41481;DHT22;27217;51.220;5.308;2023-07-16T15:28:06;23.60;90.80
41481;DHT22;27217;51.220;5.308;2023-07-16T15:30:32;23.90;90.50
41481;DHT22;27217;51.220;5.308;2023-07-16T15:32:58;24.00;89.90
41481;DHT22;27217;51.220;5.308;2023-07-16T15:35:23;24.00;90.10
41481;DHT22;27217;51.220;5.308;2023-07-16T15:37:50;24.60;88.70
41481;DHT22;27217;51.220;5.308;2023-07-16T15:40:16;25.30;86.30
41481;DHT22;27217;51.220;5.308;2023-07-16T15:42:43;25.50;84.40
41481;DHT22;27217;51.220;5.308;2023-07-16T15:45:10;24.90;86.00